sensor_id;sensor_type;location;lat;lon;timestamp;pressure;altitude;pressure_sealevel;temperature;humidity
22830;BME280;11581;51.250;6.778;2023-04-19T00:01:40;102134.41;;;14.15;51.25
22830;BME280;11581;51.250;6.778;2023-04-19T00:04:07;102159.31;;;14.26;51.54
22830;BME280;11581;51.250;6.778;2023-04-19T00:06:34;102186.78;;;14.49;51.42
22830;BME280;11581;51.250;6.778;2023-04-19T00:09:00;102119.72;;;14.09;51.37
22830;BME280;11581;51.250;6.778;2023-04-19T00:11:27;102168.69;;;14.41;51.54
22830;BME280;11581;51.250;6.778;2023-04-19T00:13:53;102179.75;;;14.48;51.56
22830;BME280;11581;51.250;6.778;2023-04-19T00:16:20;102139.38;;;14.19;51.61
22830;BME280;11581;51.250;6.778;2023-04-19T00:18:46;102179.75;;;14.48;51.74
22830;BME280;11581;51.250;6.778;2023-04-19T00:21:13;102126.22;;;14.16;51.81
22830;BME280;11581;51.250;6.778;2023-04-19T00:23:39;102175.47;;;14.45;51.83
22830;BME280;11581;51.250;6.778;2023-04-19T00:26:06;102149.44;;;14.27;51.77
22830;BME280;11581;51.250;6.778;2023-04-19T00:28:33;102176.59;;;14.43;51.86
22830;BME280;11581;51.250;6.778;2023-04-19T00:30:59;102097.38;;;13.99;52.07
22830;BME280;11581;51.250;6.778;2023-04-19T00:33:26;102174.06;;;14.41;51.96
22830;BME280;11581;51.250;6.778;2023-04-19T00:35:55;102176.88;;;14.40;52.27
22830;BME280;11581;51.250;6.778;2023-04-19T00:38:22;102144.03;;;14.17;52.20
22830;BME280;11581;51.250;6.778;2023-04-19T00:40:48;102171.78;;;14.37;52.33
22830;BME280;11581;51.250;6.778;2023-04-19T00:43:18;102168.41;;;14.35;53.03
22830;BME280;11581;51.250;6.778;2023-04-19T00:45:46;102174.59;;;14.35;52.63
22830;BME280;11581;51.250;6.778;2023-04-19T00:48:13;102154.22;;;14.23;52.59
22830;BME280;11581;51.250;6.778;2023-04-19T00:50:42;102109.78;;;14.00;52.92
22830;BME280;11581;51.250;6.778;2023-04-19T00:53:10;102159.13;;;14.18;52.69
22830;BME280;11581;51.250;6.778;2023-04-19T00:55:39;102171.91;;;14.35;53.41
22830;BME280;11581;51.250;6.778;2023-04-19T00:58:07;102173.78;;;14.35;52.97
22830;BME280;11581;51.250;6.778;2023-04-19T01:00:35;102172.91;;;14.34;53.27
22830;BME280;11581;51.250;6.778;2023-04-19T01:03:01;102167.56;;;14.34;52.89
22830;BME280;11581;51.250;6.778;2023-04-19T01:05:29;102150.16;;;14.29;53.28
22830;BME280;11581;51.250;6.778;2023-04-19T01:07:55;102162.03;;;14.36;53.69
22830;BME280;11581;51.250;6.778;2023-04-19T01:10:21;102160.34;;;14.35;53.26
22830;BME280;11581;51.250;6.778;2023-04-19T01:12:48;102158.63;;;14.34;53.60
22830;BME280;11581;51.250;6.778;2023-04-19T01:15:16;102154.13;;;14.34;53.63
22830;BME280;11581;51.250;6.778;2023-04-19T01:17:42;102114.06;;;14.12;53.75
22830;BME280;11581;51.250;6.778;2023-04-19T01:20:10;102160.50;;;14.33;53.80
22830;BME280;11581;51.250;6.778;2023-04-19T01:22:37;102152.44;;;14.33;53.83
22830;BME280;11581;51.250;6.778;2023-04-19T01:25:05;102099.94;;;14.01;54.04
22830;BME280;11581;51.250;6.778;2023-04-19T01:27:31;102148.75;;;14.34;54.16
22830;BME280;11581;51.250;6.778;2023-04-19T01:29:58;102152.16;;;14.36;54.35
22830;BME280;11581;51.250;6.778;2023-04-19T01:32:25;102118.31;;;14.15;54.06
22830;BME280;11581;51.250;6.778;2023-04-19T01:34:54;102125.44;;;14.25;54.25
22830;BME280;11581;51.250;6.778;2023-04-19T01:37:20;102127.97;;;14.27;54.27
22830;BME280;11581;51.250;6.778;2023-04-19T01:39:47;102125.66;;;14.22;54.35
22830;BME280;11581;51.250;6.778;2023-04-19T01:42:13;102147.50;;;14.38;54.48
22830;BME280;11581;51.250;6.778;2023-04-19T01:44:40;102096.28;;;14.11;54.57
22830;BME280;11581;51.250;6.778;2023-04-19T01:47:06;102129.25;;;14.32;54.65
22830;BME280;11581;51.250;6.778;2023-04-19T01:49:33;102093.75;;;14.10;54.66
22830;BME280;11581;51.250;6.778;2023-04-19T01:51:59;102084.16;;;14.07;54.89
22830;BME280;11581;51.250;6.778;2023-04-19T01:54:26;102137.19;;;14.43;55.01
22830;BME280;11581;51.250;6.778;2023-04-19T01:56:52;102136.19;;;14.44;55.10
22830;BME280;11581;51.250;6.778;2023-04-19T01:59:18;102138.75;;;14.46;55.43
22830;BME280;11581;51.250;6.778;2023-04-19T02:01:45;102140.44;;;14.47;55.17
22830;BME280;11581;51.250;6.778;2023-04-19T02:04:11;102119.66;;;14.39;55.19
22830;BME280;11581;51.250;6.778;2023-04-19T02:06:38;102134.94;;;14.48;55.34
22830;BME280;11581;51.250;6.778;2023-04-19T02:09:04;102130.56;;;14.47;55.30
22830;BME280;11581;51.250;6.778;2023-04-19T02:11:31;102136.94;;;14.46;55.47
22830;BME280;11581;51.250;6.778;2023-04-19T02:13:57;102077.38;;;14.13;55.68
22830;BME280;11581;51.250;6.778;2023-04-19T02:16:25;102131.56;;;14.46;55.76
22830;BME280;11581;51.250;6.778;2023-04-19T02:18:52;102134.25;;;14.46;55.69
22830;BME280;11581;51.250;6.778;2023-04-19T02:21:18;102120.38;;;14.41;55.73
22830;BME280;11581;51.250;6.778;2023-04-19T02:23:46;102128.16;;;14.44;55.98
22830;BME280;11581;51.250;6.778;2023-04-19T02:26:12;102119.50;;;14.41;56.00
22830;BME280;11581;51.250;6.778;2023-04-19T02:28:41;102037.50;;;13.89;55.89
22830;BME280;11581;51.250;6.778;2023-04-19T02:31:08;102127.69;;;14.39;56.00
22830;BME280;11581;51.250;6.778;2023-04-19T02:33:34;102126.16;;;14.37;55.93
22830;BME280;11581;51.250;6.778;2023-04-19T02:36:01;102071.81;;;13.95;56.00
22830;BME280;11581;51.250;6.778;2023-04-19T02:38:27;101996.47;;;13.49;55.91
22830;BME280;11581;51.250;6.778;2023-04-19T02:40:54;102131.66;;;14.26;56.02
22830;BME280;11581;51.250;6.778;2023-04-19T02:43:20;102082.50;;;13.86;56.23
22830;BME280;11581;51.250;6.778;2023-04-19T02:45:47;102069.50;;;13.81;56.31
22830;BME280;11581;51.250;6.778;2023-04-19T02:48:13;102136.13;;;14.16;56.37
22830;BME280;11581;51.250;6.778;2023-04-19T02:50:40;102119.44;;;14.03;56.33
22830;BME280;11581;51.250;6.778;2023-04-19T02:53:06;102137.50;;;14.10;56.33
22830;BME280;11581;51.250;6.778;2023-04-19T02:55:33;102133.25;;;14.08;56.28
22830;BME280;11581;51.250;6.778;2023-04-19T02:58:05;102131.56;;;14.07;56.39
22830;BME280;11581;51.250;6.778;2023-04-19T03:00:36;102095.50;;;13.81;56.33
22830;BME280;11581;51.250;6.778;2023-04-19T03:03:07;102129.44;;;14.01;56.49
22830;BME280;11581;51.250;6.778;2023-04-19T03:05:34;102129.56;;;13.99;56.32
22830;BME280;11581;51.250;6.778;2023-04-19T03:08:00;102133.53;;;13.95;56.44
22830;BME280;11581;51.250;6.778;2023-04-19T03:10:27;102111.19;;;13.85;56.23
22830;BME280;11581;51.250;6.778;2023-04-19T03:12:53;102127.97;;;13.87;56.45
22830;BME280;11581;51.250;6.778;2023-04-19T03:15:20;102055.41;;;13.39;56.50
22830;BME280;11581;51.250;6.778;2023-04-19T03:17:47;102078.31;;;13.53;56.73
22830;BME280;11581;51.250;6.778;2023-04-19T03:20:13;102108.59;;;13.74;56.81
22830;BME280;11581;51.250;6.778;2023-04-19T03:22:41;102115.06;;;13.72;57.23
22830;BME280;11581;51.250;6.778;2023-04-19T03:25:08;102109.84;;;13.70;57.23
22830;BME280;11581;51.250;6.778;2023-04-19T03:27:36;102117.03;;;13.70;57.46
22830;BME280;11581;51.250;6.778;2023-04-19T03:30:08;102112.66;;;13.69;57.41
22830;BME280;11581;51.250;6.778;2023-04-19T03:32:35;102098.41;;;13.68;57.76
22830;BME280;11581;51.250;6.778;2023-04-19T03:35:01;102034.19;;;13.27;57.46
22830;BME280;11581;51.250;6.778;2023-04-19T03:37:28;102103.50;;;13.71;57.61
22830;BME280;11581;51.250;6.778;2023-04-19T03:39:55;102035.63;;;13.31;57.63
22830;BME280;11581;51.250;6.778;2023-04-19T03:42:27;102100.53;;;13.74;57.61
22830;BME280;11581;51.250;6.778;2023-04-19T03:44:58;102029.13;;;13.33;57.47
22830;BME280;11581;51.250;6.778;2023-04-19T03:47:28;102102.13;;;13.77;57.34
22830;BME280;11581;51.250;6.778;2023-04-19T03:49:56;102094.91;;;13.77;57.20
22830;BME280;11581;51.250;6.778;2023-04-19T03:52:22;102097.44;;;13.79;57.49
22830;BME280;11581;51.250;6.778;2023-04-19T03:54:50;102071.59;;;13.68;57.31
22830;BME280;11581;51.250;6.778;2023-04-19T03:57:32;102094.38;;;13.83;57.29
22830;BME280;11581;51.250;6.778;2023-04-19T04:00:05;102090.56;;;13.86;57.06
22830;BME280;11581;51.250;6.778;2023-04-19T04:02:39;102079.28;;;13.82;57.08
22830;BME280;11581;51.250;6.778;2023-04-19T04:05:06;102010.44;;;13.43;56.81
22830;BME280;11581;51.250;6.778;2023-04-19T04:07:34;102093.81;;;13.89;56.79
22830;BME280;11581;51.250;6.778;2023-04-19T04:10:01;102032.75;;;13.53;56.45
22830;BME280;11581;51.250;6.778;2023-04-19T04:12:29;102080.16;;;13.92;56.40
22830;BME280;11581;51.250;6.778;2023-04-19T04:14:58;102086.38;;;13.93;56.33
22830;BME280;11581;51.250;6.778;2023-04-19T04:17:24;102083.81;;;13.91;56.14
22830;BME280;11581;51.250;6.778;2023-04-19T04:19:51;102057.22;;;13.69;56.01
22830;BME280;11581;51.250;6.778;2023-04-19T04:22:17;102090.88;;;13.92;55.85
22830;BME280;11581;51.250;6.778;2023-04-19T04:24:44;102094.56;;;13.91;56.13
22830;BME280;11581;51.250;6.778;2023-04-19T04:27:25;102087.47;;;13.90;55.75
22830;BME280;11581;51.250;6.778;2023-04-19T04:29:53;102091.16;;;13.89;55.45
22830;BME280;11581;51.250;6.778;2023-04-19T04:32:21;102086.63;;;13.90;55.43
22830;BME280;11581;51.250;6.778;2023-04-19T04:34:51;101965.03;;;13.11;55.29
22830;BME280;11581;51.250;6.778;2023-04-19T04:37:26;102052.41;;;13.63;55.21
22830;BME280;11581;51.250;6.778;2023-04-19T04:39:54;102098.47;;;13.87;55.19
22830;BME280;11581;51.250;6.778;2023-04-19T04:42:20;102098.47;;;13.87;55.04
22830;BME280;11581;51.250;6.778;2023-04-19T04:44:47;102030.06;;;13.53;54.76
22830;BME280;11581;51.250;6.778;2023-04-19T04:47:16;102095.91;;;13.86;54.81
22830;BME280;11581;51.250;6.778;2023-04-19T04:49:52;102088.72;;;13.86;54.68
22830;BME280;11581;51.250;6.778;2023-04-19T04:52:18;102102.16;;;13.86;54.58
22830;BME280;11581;51.250;6.778;2023-04-19T04:55:11;102095.78;;;13.87;54.34
22830;BME280;11581;51.250;6.778;2023-04-19T04:57:42;102097.63;;;13.87;54.19
22830;BME280;11581;51.250;6.778;2023-04-19T05:00:15;101938.72;;;12.96;54.00
22830;BME280;11581;51.250;6.778;2023-04-19T05:02:53;102082.38;;;13.87;53.94
22830;BME280;11581;51.250;6.778;2023-04-19T05:05:21;102089.47;;;13.88;53.85
22830;BME280;11581;51.250;6.778;2023-04-19T05:07:48;102092.00;;;13.90;53.70
22830;BME280;11581;51.250;6.778;2023-04-19T05:10:15;102051.25;;;13.56;53.58
22830;BME280;11581;51.250;6.778;2023-04-19T05:12:43;102088.19;;;13.92;53.40
22830;BME280;11581;51.250;6.778;2023-04-19T05:15:10;102069.50;;;13.81;52.92
22830;BME280;11581;51.250;6.778;2023-04-19T05:17:39;102055.53;;;13.78;52.83
22830;BME280;11581;51.250;6.778;2023-04-19T05:20:07;102088.63;;;13.97;52.49
22830;BME280;11581;51.250;6.778;2023-04-19T05:22:34;102094.69;;;13.99;52.53
22830;BME280;11581;51.250;6.778;2023-04-19T05:25:02;102094.84;;;13.98;52.74
22830;BME280;11581;51.250;6.778;2023-04-19T05:27:28;102095.16;;;14.14;52.72
22830;BME280;11581;51.250;6.778;2023-04-19T05:29:55;102092.22;;;14.26;52.28
22830;BME280;11581;51.250;6.778;2023-04-19T05:32:21;102082.63;;;14.24;51.83
22830;BME280;11581;51.250;6.778;2023-04-19T05:34:52;102088.19;;;14.51;51.42
22830;BME280;11581;51.250;6.778;2023-04-19T05:37:21;102098.63;;;14.73;51.01
22830;BME280;11581;51.250;6.778;2023-04-19T05:39:48;102099.47;;;14.92;51.50
22830;BME280;11581;51.250;6.778;2023-04-19T05:42:16;102101.69;;;15.16;51.16
22830;BME280;11581;51.250;6.778;2023-04-19T05:44:43;102105.34;;;15.43;50.29
22830;BME280;11581;51.250;6.778;2023-04-19T05:47:10;102057.47;;;15.47;49.21
22830;BME280;11581;51.250;6.778;2023-04-19T05:50:03;102083.66;;;15.82;47.69
22830;BME280;11581;51.250;6.778;2023-04-19T05:52:33;101959.94;;;15.18;47.09
22830;BME280;11581;51.250;6.778;2023-04-19T05:55:01;102093.69;;;16.07;46.96
22830;BME280;11581;51.250;6.778;2023-04-19T05:57:28;102093.56;;;16.26;47.50
22830;BME280;11581;51.250;6.778;2023-04-19T05:59:55;102101.66;;;16.53;48.02
22830;BME280;11581;51.250;6.778;2023-04-19T06:02:26;102090.34;;;16.92;48.35
22830;BME280;11581;51.250;6.778;2023-04-19T06:04:53;101999.19;;;16.88;47.65
22830;BME280;11581;51.250;6.778;2023-04-19T06:07:23;102088.16;;;17.98;46.68
22830;BME280;11581;51.250;6.778;2023-04-19T06:09:49;102087.63;;;18.52;45.59
22830;BME280;11581;51.250;6.778;2023-04-19T06:12:16;102089.81;;;19.05;44.95
22830;BME280;11581;51.250;6.778;2023-04-19T06:14:43;102095.19;;;19.61;43.64
22830;BME280;11581;51.250;6.778;2023-04-19T06:17:10;102062.19;;;19.96;42.69
22830;BME280;11581;51.250;6.778;2023-04-19T06:19:36;102083.84;;;20.57;40.83
22830;BME280;11581;51.250;6.778;2023-04-19T06:22:03;102090.22;;;20.87;38.84
22830;BME280;11581;51.250;6.778;2023-04-19T06:24:30;102096.44;;;20.95;37.46
22830;BME280;11581;51.250;6.778;2023-04-19T06:26:56;102089.19;;;20.88;36.61
22830;BME280;11581;51.250;6.778;2023-04-19T06:29:23;102032.72;;;20.32;36.78
22830;BME280;11581;51.250;6.778;2023-04-19T06:31:50;102093.84;;;20.57;37.57
22830;BME280;11581;51.250;6.778;2023-04-19T06:34:16;101994.81;;;20.01;37.99
22830;BME280;11581;51.250;6.778;2023-04-19T06:36:43;101952.63;;;19.84;38.29
22830;BME280;11581;51.250;6.778;2023-04-19T06:39:09;102085.34;;;20.82;38.40
22830;BME280;11581;51.250;6.778;2023-04-19T06:41:36;102045.63;;;20.89;38.07
22830;BME280;11581;51.250;6.778;2023-04-19T06:44:04;102043.09;;;21.25;37.69
22830;BME280;11581;51.250;6.778;2023-04-19T06:46:31;102085.25;;;21.93;37.19
22830;BME280;11581;51.250;6.778;2023-04-19T06:48:57;102085.31;;;22.36;36.74
22830;BME280;11581;51.250;6.778;2023-04-19T06:51:24;102096.44;;;22.76;35.63
22830;BME280;11581;51.250;6.778;2023-04-19T06:53:50;102087.97;;;23.13;34.70
22830;BME280;11581;51.250;6.778;2023-04-19T06:56:16;102055.22;;;23.28;33.94
22830;BME280;11581;51.250;6.778;2023-04-19T06:58:43;102090.66;;;23.68;33.26
22830;BME280;11581;51.250;6.778;2023-04-19T07:01:10;102087.22;;;23.87;32.03
22830;BME280;11581;51.250;6.778;2023-04-19T07:03:37;102090.19;;;23.92;31.90
22830;BME280;11581;51.250;6.778;2023-04-19T07:06:04;102055.31;;;23.75;31.35
22830;BME280;11581;51.250;6.778;2023-04-19T07:08:31;102084.69;;;23.86;30.63
22830;BME280;11581;51.250;6.778;2023-04-19T07:10:58;102095.50;;;23.66;30.64
22830;BME280;11581;51.250;6.778;2023-04-19T07:13:25;102082.94;;;23.38;30.79
22830;BME280;11581;51.250;6.778;2023-04-19T07:15:52;102083.31;;;23.07;31.08
22830;BME280;11581;51.250;6.778;2023-04-19T07:18:18;102074.72;;;22.83;31.82
22830;BME280;11581;51.250;6.778;2023-04-19T07:20:45;102053.84;;;22.48;32.18
22830;BME280;11581;51.250;6.778;2023-04-19T07:23:14;102077.41;;;22.55;32.06
22830;BME280;11581;51.250;6.778;2023-04-19T07:25:40;102005.47;;;22.01;31.65
22830;BME280;11581;51.250;6.778;2023-04-19T07:28:07;102087.72;;;22.24;31.42
22830;BME280;11581;51.250;6.778;2023-04-19T07:30:34;102028.28;;;21.71;31.29
22830;BME280;11581;51.250;6.778;2023-04-19T07:33:01;102055.44;;;21.56;32.14
22830;BME280;11581;51.250;6.778;2023-04-19T07:35:29;102089.81;;;21.64;32.90
22830;BME280;11581;51.250;6.778;2023-04-19T07:37:55;102057.03;;;21.65;34.01
22830;BME280;11581;51.250;6.778;2023-04-19T07:40:22;102075.34;;;22.07;34.45
22830;BME280;11581;51.250;6.778;2023-04-19T07:42:48;102045.38;;;22.36;34.19
22830;BME280;11581;51.250;6.778;2023-04-19T07:45:15;102043.16;;;23.09;33.97
22830;BME280;11581;51.250;6.778;2023-04-19T07:47:42;102088.59;;;24.05;33.00
22830;BME280;11581;51.250;6.778;2023-04-19T07:50:09;102076.59;;;24.79;32.17
22830;BME280;11581;51.250;6.778;2023-04-19T07:52:36;102029.34;;;25.30;30.91
22830;BME280;11581;51.250;6.778;2023-04-19T07:55:03;101881.16;;;25.10;29.31
22830;BME280;11581;51.250;6.778;2023-04-19T07:57:30;102081.00;;;26.90;28.07
22830;BME280;11581;51.250;6.778;2023-04-19T07:59:56;102075.97;;;27.36;27.45
22830;BME280;11581;51.250;6.778;2023-04-19T08:02:26;102079.72;;;27.78;25.61
22830;BME280;11581;51.250;6.778;2023-04-19T08:04:56;101931.31;;;27.27;26.58
22830;BME280;11581;51.250;6.778;2023-04-19T08:07:22;102070.72;;;28.55;26.21
22830;BME280;11581;51.250;6.778;2023-04-19T08:09:50;102038.78;;;28.72;25.36
22830;BME280;11581;51.250;6.778;2023-04-19T08:12:16;101934.94;;;28.46;25.01
22830;BME280;11581;51.250;6.778;2023-04-19T08:14:43;102048.75;;;29.53;24.03
22830;BME280;11581;51.250;6.778;2023-04-19T08:17:10;101980.53;;;29.39;22.81
22830;BME280;11581;51.250;6.778;2023-04-19T08:19:37;102072.66;;;30.04;22.52
22830;BME280;11581;51.250;6.778;2023-04-19T08:22:03;102024.22;;;29.75;22.42
22830;BME280;11581;51.250;6.778;2023-04-19T08:24:30;102057.50;;;30.01;22.53
22830;BME280;11581;51.250;6.778;2023-04-19T08:26:56;102068.59;;;30.18;21.88
22830;BME280;11581;51.250;6.778;2023-04-19T08:29:23;102035.31;;;30.08;22.15
22830;BME280;11581;51.250;6.778;2023-04-19T08:31:59;102045.97;;;30.16;21.58
22830;BME280;11581;51.250;6.778;2023-04-19T08:34:26;102080.84;;;30.55;21.23
22830;BME280;11581;51.250;6.778;2023-04-19T08:36:53;102003.91;;;30.32;21.27
22830;BME280;11581;51.250;6.778;2023-04-19T08:39:19;102026.78;;;30.49;21.07
22830;BME280;11581;51.250;6.778;2023-04-19T08:41:49;102076.41;;;30.82;19.78
22830;BME280;11581;51.250;6.778;2023-04-19T08:44:17;102075.50;;;30.93;19.75
22830;BME280;11581;51.250;6.778;2023-04-19T08:46:46;101927.91;;;30.14;19.66
22830;BME280;11581;51.250;6.778;2023-04-19T08:49:13;102070.16;;;31.03;19.98
22830;BME280;11581;51.250;6.778;2023-04-19T08:51:40;102011.59;;;30.75;19.82
22830;BME280;11581;51.250;6.778;2023-04-19T08:54:11;102061.91;;;31.20;19.91
22830;BME280;11581;51.250;6.778;2023-04-19T08:56:38;102075.00;;;31.29;18.71
22830;BME280;11581;51.250;6.778;2023-04-19T08:59:05;101962.66;;;30.65;18.95
22830;BME280;11581;51.250;6.778;2023-04-19T09:01:32;102033.00;;;31.06;18.36
22830;BME280;11581;51.250;6.778;2023-04-19T09:03:59;101904.63;;;29.89;18.47
22830;BME280;11581;51.250;6.778;2023-04-19T09:06:25;102022.31;;;30.60;18.70
22830;BME280;11581;51.250;6.778;2023-04-19T09:08:52;102057.91;;;30.66;18.42
22830;BME280;11581;51.250;6.778;2023-04-19T09:11:35;102048.91;;;30.54;18.64
22830;BME280;11581;51.250;6.778;2023-04-19T09:14:09;102016.09;;;30.36;18.23
22830;BME280;11581;51.250;6.778;2023-04-19T09:16:36;102047.53;;;30.40;18.52
22830;BME280;11581;51.250;6.778;2023-04-19T09:19:04;102045.94;;;30.28;18.56
22830;BME280;11581;51.250;6.778;2023-04-19T09:21:32;102039.09;;;30.02;18.08
22830;BME280;11581;51.250;6.778;2023-04-19T09:23:59;102027.66;;;29.82;18.68
22830;BME280;11581;51.250;6.778;2023-04-19T09:26:26;102049.19;;;29.73;18.54
22830;BME280;11581;51.250;6.778;2023-04-19T09:28:59;102025.56;;;29.61;18.10
22830;BME280;11581;51.250;6.778;2023-04-19T09:31:27;102046.22;;;29.52;18.91
22830;BME280;11581;51.250;6.778;2023-04-19T09:33:54;102001.22;;;29.18;19.05
22830;BME280;11581;51.250;6.778;2023-04-19T09:36:30;102041.69;;;29.46;18.69
22830;BME280;11581;51.250;6.778;2023-04-19T09:39:00;102035.22;;;29.52;19.24
22830;BME280;11581;51.250;6.778;2023-04-19T09:41:26;102032.13;;;29.60;19.17
22830;BME280;11581;51.250;6.778;2023-04-19T09:44:08;102038.44;;;29.72;19.43
22830;BME280;11581;51.250;6.778;2023-04-19T09:46:40;102021.19;;;29.88;19.19
22830;BME280;11581;51.250;6.778;2023-04-19T09:51:43;102026.50;;;30.06;17.61
22830;BME280;11581;51.250;6.778;2023-04-19T09:54:12;102025.09;;;29.92;17.59
22830;BME280;11581;51.250;6.778;2023-04-19T09:56:43;102026.28;;;29.68;17.25
22830;BME280;11581;51.250;6.778;2023-04-19T09:59:25;101866.09;;;28.47;16.99
22830;BME280;11581;51.250;6.778;2023-04-19T10:01:55;101959.88;;;28.79;17.22
22830;BME280;11581;51.250;6.778;2023-04-19T10:04:22;102020.47;;;29.07;18.17
22830;BME280;11581;51.250;6.778;2023-04-19T10:06:53;102005.16;;;29.11;17.96
22830;BME280;11581;51.250;6.778;2023-04-19T10:09:26;102019.75;;;29.23;17.53
22830;BME280;11581;51.250;6.778;2023-04-19T10:11:53;101985.59;;;29.19;17.90
22830;BME280;11581;51.250;6.778;2023-04-19T10:14:23;101945.94;;;29.15;17.51
22830;BME280;11581;51.250;6.778;2023-04-19T10:16:50;102006.06;;;29.74;17.75
22830;BME280;11581;51.250;6.778;2023-04-19T10:19:19;101960.19;;;29.63;17.30
22830;BME280;11581;51.250;6.778;2023-04-19T10:21:47;101988.78;;;29.90;17.06
22830;BME280;11581;51.250;6.778;2023-04-19T10:24:14;101993.56;;;29.94;16.75
22830;BME280;11581;51.250;6.778;2023-04-19T10:27:06;102007.25;;;30.06;17.27
22830;BME280;11581;51.250;6.778;2023-04-19T10:30:02;102016.03;;;29.91;17.24
22830;BME280;11581;51.250;6.778;2023-04-19T10:32:39;101987.44;;;29.53;15.54
22830;BME280;11581;51.250;6.778;2023-04-19T10:35:16;102014.84;;;29.36;15.88
22830;BME280;11581;51.250;6.778;2023-04-19T10:40:55;101992.56;;;28.46;16.98
22830;BME280;11581;51.250;6.778;2023-04-19T10:45:51;102004.88;;;28.25;16.45
22830;BME280;11581;51.250;6.778;2023-04-19T10:51:14;101985.41;;;27.85;16.97
22830;BME280;11581;51.250;6.778;2023-04-19T11:01:41;101983.47;;;28.04;16.58
22830;BME280;11581;51.250;6.778;2023-04-19T11:06:37;101998.09;;;28.28;16.22
22830;BME280;11581;51.250;6.778;2023-04-19T11:09:06;101991.28;;;28.30;16.39
22830;BME280;11581;51.250;6.778;2023-04-19T11:11:35;101907.88;;;27.78;16.53
22830;BME280;11581;51.250;6.778;2023-04-19T11:14:02;101977.81;;;28.29;16.33
22830;BME280;11581;51.250;6.778;2023-04-19T11:16:29;101911.31;;;27.74;16.24
22830;BME280;11581;51.250;6.778;2023-04-19T11:18:57;101904.38;;;27.71;16.17
22830;BME280;11581;51.250;6.778;2023-04-19T11:21:24;101985.81;;;28.00;16.13
22830;BME280;11581;51.250;6.778;2023-04-19T11:24:08;101979.28;;;27.83;15.62
22830;BME280;11581;51.250;6.778;2023-04-19T11:26:34;101964.28;;;27.56;15.99
22830;BME280;11581;51.250;6.778;2023-04-19T11:29:01;101962.16;;;27.40;16.06
22830;BME280;11581;51.250;6.778;2023-04-19T11:31:31;101974.75;;;27.23;15.93
22830;BME280;11581;51.250;6.778;2023-04-19T11:33:58;101990.09;;;27.06;16.29
22830;BME280;11581;51.250;6.778;2023-04-19T11:36:25;101965.63;;;26.87;16.14
22830;BME280;11581;51.250;6.778;2023-04-19T11:38:52;101881.28;;;26.10;16.40
22830;BME280;11581;51.250;6.778;2023-04-19T11:41:19;101963.09;;;26.36;16.30
22830;BME280;11581;51.250;6.778;2023-04-19T11:43:45;101960.59;;;26.03;16.97
22830;BME280;11581;51.250;6.778;2023-04-19T11:46:12;101963.47;;;25.77;17.14
22830;BME280;11581;51.250;6.778;2023-04-19T11:48:52;101943.63;;;25.51;17.38
22830;BME280;11581;51.250;6.778;2023-04-19T11:51:19;101893.19;;;24.90;17.84
22830;BME280;11581;51.250;6.778;2023-04-19T11:53:46;101922.50;;;25.14;17.94
22830;BME280;11581;51.250;6.778;2023-04-19T11:56:12;101936.81;;;25.03;17.67
22830;BME280;11581;51.250;6.778;2023-04-19T11:58:45;101962.22;;;24.97;16.96
22830;BME280;11581;51.250;6.778;2023-04-19T12:03:52;101941.25;;;24.78;17.84
22830;BME280;11581;51.250;6.778;2023-04-19T12:06:27;101932.00;;;24.79;17.90
22830;BME280;11581;51.250;6.778;2023-04-19T12:08:55;101932.22;;;24.84;17.62
22830;BME280;11581;51.250;6.778;2023-04-19T12:11:41;101927.63;;;24.78;17.97
22830;BME280;11581;51.250;6.778;2023-04-19T12:14:12;101922.59;;;24.55;17.11
22830;BME280;11581;51.250;6.778;2023-04-19T12:16:39;101886.09;;;24.24;17.15
22830;BME280;11581;51.250;6.778;2023-04-19T12:19:14;101851.66;;;23.83;17.28
22830;BME280;11581;51.250;6.778;2023-04-19T12:21:42;101906.78;;;23.92;17.69
22830;BME280;11581;51.250;6.778;2023-04-19T12:24:09;101917.44;;;23.80;18.05
22830;BME280;11581;51.250;6.778;2023-04-19T12:26:51;101905.28;;;23.83;17.96
22830;BME280;11581;51.250;6.778;2023-04-19T12:29:19;101808.34;;;23.22;18.48
22830;BME280;11581;51.250;6.778;2023-04-19T12:31:45;101804.84;;;23.28;18.77
22830;BME280;11581;51.250;6.778;2023-04-19T12:34:12;101894.44;;;23.89;18.65
22830;BME280;11581;51.250;6.778;2023-04-19T12:36:38;101793.34;;;23.45;19.00
22830;BME280;11581;51.250;6.778;2023-04-19T12:39:05;101844.97;;;23.92;18.49
22830;BME280;11581;51.250;6.778;2023-04-19T12:41:31;101808.28;;;23.82;18.27
22830;BME280;11581;51.250;6.778;2023-04-19T12:43:58;101877.91;;;24.30;18.21
22830;BME280;11581;51.250;6.778;2023-04-19T12:46:24;101876.22;;;24.36;18.59
22830;BME280;11581;51.250;6.778;2023-04-19T12:48:50;101839.13;;;24.22;18.50
22830;BME280;11581;51.250;6.778;2023-04-19T12:51:17;101858.38;;;24.53;18.50
22830;BME280;11581;51.250;6.778;2023-04-19T12:53:47;101872.66;;;24.61;18.29
22830;BME280;11581;51.250;6.778;2023-04-19T12:56:14;101854.81;;;24.59;18.34
22830;BME280;11581;51.250;6.778;2023-04-19T12:58:41;101867.63;;;24.65;18.40
22830;BME280;11581;51.250;6.778;2023-04-19T13:01:08;101825.91;;;24.32;18.28
22830;BME280;11581;51.250;6.778;2023-04-19T13:03:35;101860.09;;;24.67;18.09
22830;BME280;11581;51.250;6.778;2023-04-19T13:06:04;101819.19;;;24.41;17.74
22830;BME280;11581;51.250;6.778;2023-04-19T13:08:31;101866.34;;;24.54;18.20
22830;BME280;11581;51.250;6.778;2023-04-19T13:10:58;101834.94;;;24.26;18.13
22830;BME280;11581;51.250;6.778;2023-04-19T13:13:25;101828.84;;;24.24;18.58
22830;BME280;11581;51.250;6.778;2023-04-19T13:15:51;101831.16;;;24.14;18.47
22830;BME280;11581;51.250;6.778;2023-04-19T13:18:18;101813.31;;;23.85;18.53
22830;BME280;11581;51.250;6.778;2023-04-19T13:20:44;101816.41;;;23.62;18.45